Time;durP1;ratioP1;P1;durP2;ratioP2;P2;SDS_P1;SDS_P2;PMS_P1;PMS_P2;Temp;Humidity;BMP_temperature;BMP_pressure;BME280_temperature;BME280_humidity;BME280_pressure;Samples;Min_cycle;Max_cycle;Signal;HPM_P1;HPM_P2
2024/02/20 00:01:04;;;;;;;421.47;401.17;;;21.50;91.60;;;;;;5046463;28;20573;-69
2024/02/20 00:03:31;;;;;;;445.77;423.93;;;21.60;91.80;;;;;;5049234;28;20677;-70
2024/02/20 00:05:58;;;;;;;447.90;426.33;;;21.70;91.80;;;;;;5050807;28;20259;-71
2024/02/20 00:08:25;;;;;;;476.63;453.83;;;21.70;91.80;;;;;;5050051;28;20720;-70
2024/02/20 00:10:53;;;;;;;488.97;465.70;;;21.80;91.90;;;;;;5050613;28;20186;-70
2024/02/20 00:13:21;;;;;;;502.93;479.17;;;21.80;91.80;;;;;;5050976;28;20175;-71
2024/02/20 00:15:48;;;;;;;515.83;491.33;;;21.90;92.00;;;;;;5047496;28;20546;-71
2024/02/20 00:18:15;;;;;;;516.03;491.77;;;21.90;92.10;;;;;;5050621;28;20638;-71
2024/02/20 00:20:44;;;;;;;542.20;515.80;;;21.80;91.80;;;;;;5046506;28;20235;-71
2024/02/20 00:23:14;;;;;;;544.83;519.37;;;21.80;91.90;;;;;;5044899;28;20180;-71
2024/02/20 00:25:45;;;;;;;529.23;504.27;;;21.70;92.00;;;;;;5048678;28;20184;-71
2024/02/20 00:28:13;;;;;;;557.00;531.13;;;21.50;91.90;;;;;;5049960;28;20659;-71
2024/02/20 00:30:41;;;;;;;566.47;538.70;;;21.50;92.20;;;;;;5046257;28;20191;-71
2024/02/20 00:33:09;;;;;;;551.50;525.33;;;21.50;92.40;;;;;;5050464;28;20183;-71
2024/02/20 00:35:36;;;;;;;577.83;550.50;;;21.50;92.60;;;;;;5050307;28;20659;-70
2024/02/20 00:38:03;;;;;;;618.60;588.37;;;21.50;92.80;;;;;;5049763;28;20564;-71
2024/02/20 00:40:33;;;;;;;646.60;615.33;;;21.60;93.00;;;;;;5049992;28;20611;-71
2024/02/20 00:43:01;;;;;;;662.50;630.10;;;21.50;93.10;;;;;;5050013;28;20217;-73
2024/02/20 00:45:28;;;;;;;587.77;559.93;;;21.20;92.40;;;;;;5055282;28;20187;-71
2024/02/20 00:47:55;;;;;;;565.67;539.30;;;20.30;92.60;;;;;;5052363;28;20191;-72
2024/02/20 00:50:23;;;;;;;589.27;561.67;;;19.90;92.70;;;;;;5054447;28;20191;-70
2024/02/20 00:52:50;;;;;;;625.57;595.77;;;19.70;93.10;;;;;;5052662;28;20176;-72
2024/02/20 00:55:17;;;;;;;638.33;607.63;;;19.60;93.70;;;;;;5055976;28;20259;-71
2024/02/20 00:57:44;;;;;;;669.17;636.80;;;19.50;93.90;;;;;;5057013;28;20172;-70
2024/02/20 01:00:13;;;;;;;685.30;652.00;;;19.30;93.90;;;;;;5055236;28;20203;-71
2024/02/20 01:02:45;;;;;;;688.97;655.57;;;19.30;94.20;;;;;;5052644;28;20207;-71
2024/02/20 01:05:12;;;;;;;705.53;670.87;;;19.40;94.50;;;;;;5055283;28;20593;-70
2024/02/20 01:07:39;;;;;;;703.03;668.37;;;19.40;94.20;;;;;;5048780;28;20279;-71
2024/02/20 01:10:08;;;;;;;712.53;677.23;;;19.50;94.60;;;;;;5050491;28;20718;-70
2024/02/20 01:12:35;;;;;;;729.47;692.47;;;19.60;94.70;;;;;;5052777;28;20187;-70
2024/02/20 01:15:06;;;;;;;738.23;700.20;;;19.60;94.80;;;;;;5050166;28;20517;-70
2024/02/20 01:17:33;;;;;;;752.23;713.07;;;19.70;94.80;;;;;;5048705;28;20280;-70
2024/02/20 01:20:01;;;;;;;760.57;720.87;;;19.70;94.80;;;;;;5049859;28;20195;-70
2024/02/20 01:22:28;;;;;;;771.23;730.40;;;19.50;94.60;;;;;;5050927;28;20202;-70
2024/02/20 01:24:55;;;;;;;784.83;742.90;;;19.50;94.80;;;;;;5051814;28;20256;-71
2024/02/20 01:27:24;;;;;;;783.10;741.10;;;19.50;94.80;;;;;;5049780;28;20213;-70
2024/02/20 01:29:54;;;;;;;786.77;744.37;;;19.40;94.90;;;;;;5047439;28;20545;-70
2024/02/20 01:32:23;;;;;;;789.13;745.83;;;19.30;94.80;;;;;;5045303;28;20195;-70
2024/02/20 01:34:50;;;;;;;784.60;741.97;;;19.30;95.10;;;;;;5050202;28;20187;-70
2024/02/20 01:37:17;;;;;;;810.80;765.67;;;19.30;95.10;;;;;;5051994;28;20214;-71
2024/02/20 01:39:44;;;;;;;822.33;776.30;;;19.30;95.30;;;;;;5052774;28;20270;-70
2024/02/20 01:42:12;;;;;;;818.63;772.63;;;19.40;95.30;;;;;;5054230;28;20216;-70
2024/02/20 01:44:40;;;;;;;812.50;766.33;;;19.40;95.30;;;;;;5056114;28;20191;-70
2024/02/20 01:47:08;;;;;;;808.87;763.00;;;19.50;95.40;;;;;;5052389;28;20191;-70
2024/02/20 01:49:36;;;;;;;817.57;770.60;;;19.50;95.50;;;;;;5051225;28;20191;-71
2024/02/20 01:52:06;;;;;;;832.00;783.97;;;19.60;95.50;;;;;;5049944;28;20180;-70
2024/02/20 01:54:34;;;;;;;838.23;789.77;;;19.60;95.40;;;;;;5054406;28;20180;-70
2024/02/20 01:57:02;;;;;;;845.53;796.67;;;19.60;95.50;;;;;;5054122;28;20257;-70
2024/02/20 01:59:29;;;;;;;848.13;798.80;;;19.60;95.40;;;;;;5053755;28;20242;-71
2024/02/20 02:01:57;;;;;;;847.17;798.00;;;19.60;95.40;;;;;;5053157;28;20747;-71
2024/02/20 02:04:24;;;;;;;843.50;794.07;;;19.60;95.50;;;;;;5051848;28;20194;-71
2024/02/20 02:06:51;;;;;;;838.20;788.90;;;19.60;95.50;;;;;;5053697;28;20643;-70
2024/02/20 02:09:18;;;;;;;842.67;792.97;;;19.50;95.50;;;;;;5054188;28;20218;-70
2024/02/20 02:11:46;;;;;;;847.10;796.77;;;19.50;95.50;;;;;;5053339;28;20195;-71
2024/02/20 02:14:13;;;;;;;853.53;802.93;;;19.60;95.60;;;;;;5052519;28;20237;-71
2024/02/20 02:16:40;;;;;;;849.33;798.87;;;19.50;95.50;;;;;;5053532;28;20196;-71
2024/02/20 02:19:08;;;;;;;856.60;805.80;;;19.50;95.50;;;;;;5053799;28;20537;-70
2024/02/20 02:21:36;;;;;;;852.43;801.43;;;19.50;95.60;;;;;;5052398;28;20636;-70
2024/02/20 02:24:07;;;;;;;844.17;793.73;;;19.60;95.60;;;;;;5053535;28;20238;-70
2024/02/20 02:26:35;;;;;;;851.83;800.77;;;19.50;95.60;;;;;;5053807;28;20192;-71
2024/02/20 02:29:02;;;;;;;849.37;798.17;;;19.60;95.70;;;;;;5052714;28;20649;-71
2024/02/20 02:31:30;;;;;;;847.83;796.53;;;19.60;95.70;;;;;;5053574;28;20314;-71
2024/02/20 02:33:57;;;;;;;850.43;799.23;;;19.70;95.70;;;;;;5053592;28;20752;-71
2024/02/20 02:36:24;;;;;;;857.37;805.23;;;19.70;95.70;;;;;;5052893;28;20231;-70
2024/02/20 02:38:53;;;;;;;841.57;790.13;;;19.70;95.80;;;;;;5052508;28;20172;-71
2024/02/20 02:41:21;;;;;;;847.07;795.00;;;19.70;95.70;;;;;;5053144;28;20229;-71
2024/02/20 02:43:50;;;;;;;861.73;808.47;;;19.80;95.80;;;;;;5050329;28;20176;-70
2024/02/20 02:46:18;;;;;;;862.27;809.07;;;19.70;95.70;;;;;;5053289;28;20269;-70
2024/02/20 02:48:48;;;;;;;861.60;807.93;;;19.80;95.70;;;;;;5052034;28;20270;-70
2024/02/20 02:51:17;;;;;;;860.83;807.50;;;19.80;95.70;;;;;;5052038;28;20199;-69
2024/02/20 02:53:44;;;;;;;859.37;805.93;;;19.80;95.70;;;;;;5046621;28;20192;-70
2024/02/20 02:56:12;;;;;;;862.10;808.33;;;19.80;95.70;;;;;;5052942;28;20187;-69
2024/02/20 02:58:40;;;;;;;860.50;806.73;;;19.80;95.70;;;;;;5052487;28;20195;-70
2024/02/20 03:01:09;;;;;;;851.70;799.10;;;19.80;95.60;;;;;;5053056;28;20232;-70
2024/02/20 03:03:37;;;;;;;853.53;801.50;;;19.60;95.40;;;;;;5052186;28;20199;-70
2024/02/20 03:06:08;;;;;;;854.20;801.83;;;19.60;95.60;;;;;;5047449;28;20188;-70
2024/02/20 03:08:38;;;;;;;846.40;794.90;;;19.70;95.70;;;;;;5052758;28;20721;-70
2024/02/20 03:11:07;;;;;;;844.33;792.67;;;19.70;95.70;;;;;;5052438;28;20191;-69
2024/02/20 03:13:34;;;;;;;839.17;788.17;;;19.80;95.60;;;;;;5053251;28;20191;-70
2024/02/20 03:16:03;;;;;;;838.53;786.83;;;19.70;95.60;;;;;;5051441;28;20180;-69
2024/02/20 03:18:34;;;;;;;843.13;791.43;;;19.80;95.60;;;;;;5051828;28;20291;-70
2024/02/20 03:21:02;;;;;;;854.17;801.90;;;20.00;95.70;;;;;;5051249;28;20204;-69
2024/02/20 03:23:33;;;;;;;845.13;793.40;;;20.00;95.50;;;;;;5052619;28;20184;-72
2024/02/20 03:26:01;;;;;;;850.63;798.40;;;20.10;95.70;;;;;;5052429;28;20222;-69
2024/02/20 03:28:29;;;;;;;859.87;807.00;;;20.20;95.60;;;;;;5052185;28;20191;-69
2024/02/20 03:30:57;;;;;;;854.73;802.57;;;20.20;95.30;;;;;;5051142;28;20183;-69
2024/02/20 03:33:26;;;;;;;859.73;807.33;;;20.20;95.50;;;;;;5051943;28;20184;-72
2024/02/20 03:35:54;;;;;;;851.43;800.30;;;20.10;95.30;;;;;;5051826;28;20280;-70
2024/02/20 03:38:24;;;;;;;850.90;799.17;;;20.10;95.30;;;;;;5052250;28;20190;-71
2024/02/20 03:40:51;;;;;;;850.47;798.67;;;20.20;95.30;;;;;;5051559;28;20279;-69
2024/02/20 03:43:19;;;;;;;862.20;808.83;;;20.30;95.40;;;;;;5049583;28;20179;-69
2024/02/20 03:45:46;;;;;;;863.67;809.83;;;20.40;95.40;;;;;;5048737;28;20215;-69
2024/02/20 03:48:13;;;;;;;858.30;805.00;;;20.40;95.20;;;;;;5048962;28;20192;-69
2024/02/20 03:50:41;;;;;;;846.43;794.13;;;20.40;95.20;;;;;;5049554;28;20203;-69
2024/02/20 03:53:08;;;;;;;862.17;809.07;;;20.50;95.20;;;;;;5049987;28;21770;-70
2024/02/20 03:55:36;;;;;;;864.67;811.07;;;20.60;95.20;;;;;;5049001;28;20818;-69
2024/02/20 03:58:04;;;;;;;864.43;810.83;;;20.80;95.10;;;;;;5049295;28;20274;-71
2024/02/20 04:00:31;;;;;;;865.57;811.70;;;20.80;94.90;;;;;;5049981;28;20208;-69
2024/02/20 04:02:58;;;;;;;859.70;806.57;;;20.80;95.00;;;;;;5050137;28;20280;-69
2024/02/20 04:05:26;;;;;;;845.10;794.30;;;20.90;94.80;;;;;;5044146;28;20203;-69
2024/02/20 04:07:53;;;;;;;847.90;797.47;;;20.70;94.50;;;;;;5047566;28;20184;-69
2024/02/20 04:10:21;;;;;;;837.10;787.47;;;20.60;94.20;;;;;;5050034;28;20642;-69
2024/02/20 04:12:48;;;;;;;823.20;775.37;;;20.80;94.20;;;;;;5050934;28;20676;-69
2024/02/20 04:15:16;;;;;;;821.90;774.17;;;20.70;94.30;;;;;;5045537;28;20559;-69
2024/02/20 04:17:44;;;;;;;822.80;774.60;;;21.00;94.50;;;;;;5048635;28;20267;-69
2024/02/20 04:20:11;;;;;;;793.90;748.77;;;21.10;94.10;;;;;;5045534;28;20635;-69
2024/02/20 04:22:39;;;;;;;811.50;765.03;;;21.30;94.40;;;;;;5047865;28;20196;-71
2024/02/20 04:25:08;;;;;;;796.50;751.37;;;21.40;93.80;;;;;;5042468;28;20184;-70
2024/02/20 04:27:37;;;;;;;786.47;742.70;;;21.30;93.20;;;;;;5049518;28;20196;-69
2024/02/20 04:30:09;;;;;;;788.80;744.77;;;21.30;93.10;;;;;;5049696;28;20188;-70
2024/02/20 04:32:37;;;;;;;767.70;725.63;;;21.60;93.00;;;;;;5044272;28;20277;-69
2024/02/20 04:35:05;;;;;;;749.60;709.87;;;21.80;92.40;;;;;;5045584;28;20673;-69
2024/02/20 04:37:33;;;;;;;713.57;676.63;;;21.90;91.70;;;;;;5047830;28;20273;-71
2024/02/20 04:40:00;;;;;;;640.37;608.17;;;22.20;91.10;;;;;;5048647;28;20318;-69
2024/02/20 04:42:28;;;;;;;584.50;555.67;;;22.40;90.00;;;;;;5047433;28;20191;-69
2024/02/20 04:44:55;;;;;;;551.43;524.23;;;22.90;89.80;;;;;;5047935;28;20250;-69
2024/02/20 04:47:22;;;;;;;410.90;391.23;;;23.60;88.60;;;;;;5049513;28;20630;-70
2024/02/20 04:49:52;;;;;;;255.60;243.70;;;23.70;84.50;;;;;;5048393;28;20265;-71
2024/02/20 04:52:19;;;;;;;203.80;194.13;;;23.70;82.80;;;;;;5046007;28;20191;-71
2024/02/20 04:54:47;;;;;;;153.23;145.63;;;24.10;81.70;;;;;;5048432;28;20183;-72
2024/02/20 04:57:14;;;;;;;97.87;93.07;;;24.30;82.20;;;;;;5045735;28;20188;-70
2024/02/20 04:59:41;;;;;;;77.60;73.77;;;24.50;81.70;;;;;;5048681;28;20195;-70
2024/02/20 05:02:08;;;;;;;62.50;59.20;;;24.80;80.10;;;;;;5049304;28;20277;-70
2024/02/20 05:04:36;;;;;;;56.07;52.70;;;24.80;80.30;;;;;;5047002;28;20600;-70
2024/02/20 05:07:04;;;;;;;39.20;37.10;;;24.80;80.50;;;;;;5047248;28;20241;-70
2024/02/20 05:09:31;;;;;;;27.97;26.53;;;24.70;78.80;;;;;;5049896;28;20192;-70
2024/02/20 05:11:59;;;;;;;25.97;24.53;;;24.60;79.60;;;;;;5050068;28;20641;-71
2024/02/20 05:14:27;;;;;;;25.57;24.17;;;24.10;81.10;;;;;;5046221;28;20184;-70
2024/02/20 05:16:55;;;;;;;30.90;28.93;;;23.90;81.10;;;;;;5044770;28;20821;-70
2024/02/20 05:19:23;;;;;;;39.70;37.50;;;23.60;81.80;;;;;;5047766;28;20191;-70
2024/02/20 05:21:50;;;;;;;39.37;37.33;;;23.20;82.90;;;;;;5047373;28;20295;-69
2024/02/20 05:24:17;;;;;;;45.30;42.80;;;23.10;83.40;;;;;;5048446;28;20199;-70
2024/02/20 05:26:45;;;;;;;47.50;44.90;;;23.00;83.40;;;;;;5049113;28;20326;-73
2024/02/20 05:29:12;;;;;;;52.30;49.50;;;22.80;83.50;;;;;;5045276;28;20184;-69
2024/02/20 05:31:39;;;;;;;62.90;59.70;;;22.80;84.30;;;;;;5051266;28;20188;-71
2024/02/20 05:34:08;;;;;;;65.97;62.67;;;22.90;84.40;;;;;;5053167;28;20206;-72
2024/02/20 05:36:35;;;;;;;61.07;57.57;;;22.90;84.00;;;;;;5044175;28;20913;-72
2024/02/20 05:39:03;;;;;;;54.83;52.03;;;22.80;84.00;;;;;;5058327;28;20665;-73
2024/02/20 05:41:30;;;;;;;65.87;62.27;;;22.80;83.20;;;;;;5043081;28;20534;-73
2024/02/20 05:43:59;;;;;;;49.53;46.87;;;22.90;83.10;;;;;;5047273;28;20789;-73
2024/02/20 05:46:33;;;;;;;51.53;48.83;;;22.90;82.60;;;;;;5047450;28;20197;-75
2024/02/20 05:49:03;;;;;;;43.70;41.20;;;23.10;82.60;;;;;;5051136;28;20251;-73
2024/02/20 05:51:31;;;;;;;41.37;39.00;;;23.10;81.30;;;;;;5052561;28;20853;-74
2024/02/20 05:53:58;;;;;;;40.67;38.43;;;23.30;81.40;;;;;;5051013;28;20181;-74
2024/02/20 05:56:26;;;;;;;35.77;33.77;;;23.40;80.90;;;;;;5047297;28;20275;-75
2024/02/20 05:58:53;;;;;;;21.10;19.80;;;23.40;80.40;;;;;;5051224;28;20211;-74
2024/02/20 06:01:23;;;;;;;22.37;21.20;;;23.30;79.00;;;;;;5052740;28;20211;-73
2024/02/20 06:03:50;;;;;;;13.03;12.33;;;23.30;78.90;;;;;;5051787;28;20180;-72
2024/02/20 06:06:18;;;;;;;11.73;10.97;;;23.30;77.80;;;;;;5051335;28;20188;-73
2024/02/20 06:08:46;;;;;;;11.17;10.33;;;23.80;77.90;;;;;;5051046;28;20262;-73
2024/02/20 06:11:15;;;;;;;5.67;5.10;;;24.40;77.60;;;;;;5048398;28;20650;-71
2024/02/20 06:13:43;;;;;;;2.90;2.70;;;24.80;73.60;;;;;;5047079;28;20172;-70
2024/02/20 06:16:11;;;;;;;2.27;1.60;;;25.00;73.30;;;;;;5048545;28;20187;-71
2024/02/20 06:18:42;;;;;;;1.67;1.20;;;24.90;72.40;;;;;;5049253;28;20176;-70
2024/02/20 06:21:10;;;;;;;3.27;1.30;;;25.10;72.60;;;;;;5045952;28;20254;-71
2024/02/20 06:23:44;;;;;;;3.17;0.90;;;25.80;70.90;;;;;;5052309;28;20175;-71
2024/02/20 06:26:12;;;;;;;1.87;0.90;;;26.80;67.00;;;;;;5044787;28;20191;-71
2024/02/20 06:28:39;;;;;;;3.60;1.30;;;27.90;64.80;;;;;;5047958;28;20188;-72
2024/02/20 06:31:07;;;;;;;4.13;1.60;;;28.30;62.60;;;;;;5052928;28;20187;-72
2024/02/20 06:33:35;;;;;;;3.60;1.00;;;28.50;61.10;;;;;;5053548;28;20210;-73
2024/02/20 06:36:03;;;;;;;3.83;1.00;;;28.80;60.80;;;;;;5044196;28;20376;-71
2024/02/20 06:38:32;;;;;;;2.97;1.30;;;28.00;61.80;;;;;;5050776;28;20270;-73
2024/02/20 06:41:00;;;;;;;4.17;1.17;;;27.10;62.80;;;;;;5052567;28;20220;-72
2024/02/20 06:43:27;;;;;;;3.20;1.23;;;26.20;66.90;;;;;;5052738;28;20176;-72
2024/02/20 06:45:55;;;;;;;7.37;1.30;;;25.80;68.70;;;;;;5048919;28;20267;-72
2024/02/20 06:48:23;;;;;;;3.93;1.10;;;26.10;68.10;;;;;;5052947;28;20555;-72
2024/02/20 06:50:50;;;;;;;2.87;1.10;;;25.80;67.90;;;;;;5050009;28;20245;-73
2024/02/20 06:53:17;;;;;;;3.50;0.90;;;25.80;69.50;;;;;;5050592;28;20231;-73
2024/02/20 06:55:45;;;;;;;3.47;1.00;;;25.60;68.30;;;;;;5050303;28;20192;-72
2024/02/20 06:58:12;;;;;;;2.47;1.00;;;25.50;68.40;;;;;;5051887;28;20187;-72
2024/02/20 07:00:39;;;;;;;3.10;0.97;;;25.10;68.80;;;;;;5047638;28;20654;-73
2024/02/20 07:03:10;;;;;;;2.80;0.90;;;24.80;70.00;;;;;;5053263;28;20233;-72
2024/02/20 07:05:38;;;;;;;1.60;0.80;;;24.80;70.30;;;;;;5049274;28;20200;-72
2024/02/20 07:08:06;;;;;;;6.83;1.33;;;25.10;69.10;;;;;;5049050;28;20211;-75
2024/02/20 07:10:33;;;;;;;4.63;1.10;;;25.00;69.90;;;;;;5051630;28;20206;-74
2024/02/20 07:13:01;;;;;;;5.57;1.20;;;26.00;68.60;;;;;;5045907;28;20263;-73
2024/02/20 07:15:28;;;;;;;2.27;1.33;;;26.10;66.90;;;;;;5050046;28;20191;-73
2024/02/20 07:17:56;;;;;;;1.70;1.00;;;26.80;64.00;;;;;;5047943;28;20267;-74
2024/02/20 07:20:26;;;;;;;2.83;0.80;;;27.00;64.90;;;;;;5048975;28;20176;-73
2024/02/20 07:22:53;;;;;;;1.87;0.90;;;27.00;64.20;;;;;;5049821;28;20658;-72
2024/02/20 07:25:22;;;;;;;3.77;1.20;;;26.40;65.80;;;;;;5050870;28;20179;-73
2024/02/20 07:27:50;;;;;;;2.40;0.90;;;26.80;66.00;;;;;;5050516;28;20184;-73
2024/02/20 07:30:17;;;;;;;2.73;0.97;;;28.00;60.90;;;;;;5050901;28;20266;-72
2024/02/20 07:32:44;;;;;;;2.47;1.03;;;29.20;55.70;;;;;;5052556;28;20542;-74
2024/02/20 07:35:13;;;;;;;3.63;1.50;;;29.00;55.50;;;;;;5051581;28;20216;-73
2024/02/20 07:37:41;;;;;;;2.10;0.90;;;29.30;56.60;;;;;;5051887;28;20192;-74
2024/02/20 07:40:09;;;;;;;3.57;1.00;;;29.90;55.10;;;;;;5049417;28;20175;-74
2024/02/20 07:42:38;;;;;;;3.57;1.13;;;29.40;55.60;;;;;;5050981;28;20269;-74
2024/02/20 07:45:06;;;;;;;5.00;1.10;;;28.90;57.30;;;;;;5051595;28;20175;-73
2024/02/20 07:47:33;;;;;;;2.87;1.23;;;29.20;56.00;;;;;;5052042;28;20269;-71
2024/02/20 07:50:00;;;;;;;4.13;1.23;;;29.80;54.80;;;;;;5050177;28;20187;-73
2024/02/20 07:52:28;;;;;;;4.07;1.40;;;29.80;54.60;;;;;;5044446;28;20186;-72
2024/02/20 07:54:55;;;;;;;5.20;2.00;;;29.80;55.40;;;;;;5051821;28;20186;-72
2024/02/20 07:57:23;;;;;;;3.00;1.50;;;29.30;56.10;;;;;;5051371;28;20198;-71
2024/02/20 07:59:50;;;;;;;2.63;1.60;;;28.30;58.50;;;;;;5051132;28;20199;-72
2024/02/20 08:02:17;;;;;;;3.33;1.00;;;27.10;61.80;;;;;;5051728;28;21298;-71
2024/02/20 08:04:46;;;;;;;3.43;1.20;;;26.30;64.70;;;;;;5052264;28;20176;-72
2024/02/20 08:07:14;;;;;;;2.60;1.27;;;25.50;66.40;;;;;;5050984;28;20514;-73
2024/02/20 08:09:41;;;;;;;3.93;1.63;;;25.00;67.70;;;;;;5050935;28;20184;-72
2024/02/20 08:12:09;;;;;;;2.93;1.60;;;24.60;70.10;;;;;;5051478;28;20183;-72
2024/02/20 08:14:36;;;;;;;2.23;0.90;;;24.40;71.80;;;;;;5045338;28;20460;-72
2024/02/20 08:17:04;;;;;;;6.30;1.50;;;24.20;71.90;;;;;;5051611;28;20279;-73
2024/02/20 08:19:31;;;;;;;5.03;2.33;;;24.00;72.50;;;;;;5051130;28;20199;-72
2024/02/20 08:21:58;;;;;;;2.37;1.60;;;23.70;72.80;;;;;;5051274;28;20227;-71
2024/02/20 08:24:26;;;;;;;6.63;1.80;;;23.60;73.80;;;;;;5051679;28;20180;-71
2024/02/20 08:26:54;;;;;;;4.70;1.60;;;23.40;74.60;;;;;;5051181;28;20191;-71
2024/02/20 08:29:23;;;;;;;3.60;2.43;;;23.30;74.80;;;;;;5050866;28;20184;-71
2024/02/20 08:31:51;;;;;;;4.93;2.63;;;23.30;75.60;;;;;;5047392;28;20206;-72
2024/02/20 08:34:18;;;;;;;6.93;2.70;;;23.20;76.00;;;;;;5049682;28;20245;-71
2024/02/20 08:36:45;;;;;;;5.87;2.10;;;23.10;76.30;;;;;;5050818;28;20223;-71
2024/02/20 08:39:13;;;;;;;5.27;2.73;;;22.90;76.20;;;;;;5050241;28;20642;-72
2024/02/20 08:41:40;;;;;;;8.50;3.30;;;22.80;76.70;;;;;;5050947;28;20337;-71
2024/02/20 08:44:08;;;;;;;4.57;2.00;;;22.80;77.10;;;;;;5051104;28;20176;-71
2024/02/20 08:46:35;;;;;;;4.67;1.73;;;22.80;77.40;;;;;;5048994;28;20187;-72
2024/02/20 08:49:03;;;;;;;3.93;2.07;;;22.70;77.70;;;;;;5049187;28;20271;-72
2024/02/20 08:51:30;;;;;;;5.17;2.20;;;22.50;78.20;;;;;;5046801;28;20188;-71
2024/02/20 08:53:57;;;;;;;4.90;2.53;;;22.30;78.70;;;;;;5046409;28;20259;-71
2024/02/20 08:56:25;;;;;;;4.57;2.30;;;22.30;79.60;;;;;;5047873;28;20183;-70
2024/02/20 08:58:52;;;;;;;3.87;2.37;;;22.30;80.20;;;;;;5050402;28;20245;-70
2024/02/20 09:01:24;;;;;;;6.60;3.50;;;22.20;80.50;;;;;;5050829;28;20666;-70
2024/02/20 09:04:00;;;;;;;7.70;4.57;;;22.10;80.90;;;;;;5052947;28;20238;-71
2024/02/20 09:06:28;;;;;;;4.57;3.43;;;22.10;81.30;;;;;;5052306;28;20303;-72
2024/02/20 09:08:55;;;;;;;5.20;2.57;;;22.00;81.50;;;;;;5053633;28;20550;-70
2024/02/20 09:11:26;;;;;;;5.17;2.30;;;22.00;81.70;;;;;;5054557;28;20183;-70
2024/02/20 09:13:53;;;;;;;8.33;3.10;;;22.00;81.90;;;;;;5050147;28;20254;-70
2024/02/20 09:16:20;;;;;;;6.07;2.43;;;21.90;82.20;;;;;;5048834;28;20646;-71
2024/02/20 09:18:48;;;;;;;5.60;2.40;;;21.80;82.70;;;;;;5053367;28;20186;-70
2024/02/20 09:21:16;;;;;;;5.33;2.50;;;21.80;82.90;;;;;;5051953;28;20277;-71
2024/02/20 09:23:44;;;;;;;5.00;3.80;;;21.90;83.30;;;;;;5052312;28;20184;-70
2024/02/20 09:26:14;;;;;;;7.67;5.70;;;21.80;83.50;;;;;;5054274;28;20708;-70
2024/02/20 09:28:41;;;;;;;9.90;6.93;;;21.90;84.00;;;;;;5053926;28;20658;-70
2024/02/20 09:31:08;;;;;;;10.23;7.97;;;21.80;84.00;;;;;;5053612;28;20225;-70
2024/02/20 09:33:36;;;;;;;10.77;9.90;;;21.80;84.20;;;;;;5054733;28;20259;-70
2024/02/20 09:36:03;;;;;;;13.80;12.63;;;21.80;84.40;;;;;;5053701;28;20762;-70
2024/02/20 09:38:31;;;;;;;12.47;11.50;;;21.80;84.80;;;;;;5053966;28;20246;-71
2024/02/20 09:41:01;;;;;;;14.83;13.40;;;21.80;84.90;;;;;;5054053;28;20235;-70
2024/02/20 09:43:29;;;;;;;17.00;15.80;;;21.70;85.20;;;;;;5054402;28;20180;-70
2024/02/20 09:45:59;;;;;;;18.20;17.00;;;21.60;85.40;;;;;;5053651;28;20194;-70
2024/02/20 09:48:30;;;;;;;20.13;18.77;;;21.60;85.60;;;;;;5054583;28;20610;-70
2024/02/20 09:51:02;;;;;;;21.07;19.47;;;21.60;85.90;;;;;;5052665;28;20188;-70
2024/02/20 09:53:34;;;;;;;21.13;19.83;;;21.60;86.10;;;;;;5052904;28;20203;-70
2024/02/20 09:56:01;;;;;;;26.40;24.43;;;21.60;86.30;;;;;;5054040;28;20196;-70
2024/02/20 09:58:29;;;;;;;28.40;26.57;;;21.70;86.30;;;;;;5053870;28;20172;-71
2024/02/20 10:00:58;;;;;;;27.43;25.37;;;21.60;86.50;;;;;;5051658;28;20219;-71
2024/02/20 10:03:29;;;;;;;29.83;28.00;;;21.60;86.50;;;;;;5076480;28;20184;-71
2024/02/20 10:05:59;;;;;;;29.30;27.30;;;21.60;86.50;;;;;;5052950;28;20630;-71
2024/02/20 10:08:27;;;;;;;33.73;31.27;;;21.60;86.70;;;;;;5052935;28;20188;-70
2024/02/20 10:10:55;;;;;;;36.47;33.73;;;21.70;86.70;;;;;;5052228;28;20265;-71
2024/02/20 10:13:22;;;;;;;37.17;34.57;;;21.70;86.80;;;;;;5053212;28;20176;-71
2024/02/20 10:15:49;;;;;;;36.07;33.93;;;21.60;86.80;;;;;;5052288;28;20184;-70
2024/02/20 10:18:19;;;;;;;37.60;35.17;;;21.60;86.80;;;;;;5052941;28;20673;-71
2024/02/20 10:20:47;;;;;;;39.23;36.97;;;21.60;86.90;;;;;;5050393;28;20212;-71
2024/02/20 10:23:16;;;;;;;38.40;35.47;;;21.70;87.00;;;;;;5050959;28;20214;-71
2024/02/20 10:25:44;;;;;;;40.80;38.40;;;21.70;86.80;;;;;;5053367;28;20274;-71
2024/02/20 10:28:11;;;;;;;41.10;38.60;;;21.60;87.00;;;;;;5053053;28;20176;-70
2024/02/20 10:30:39;;;;;;;41.83;39.20;;;21.60;87.00;;;;;;5050726;28;20188;-71
2024/02/20 10:33:06;;;;;;;42.73;39.90;;;21.60;87.10;;;;;;5052923;28;20214;-70
2024/02/20 10:35:35;;;;;;;42.67;39.83;;;21.60;87.10;;;;;;5053007;28;20357;-70
2024/02/20 10:38:04;;;;;;;44.97;42.03;;;21.50;87.10;;;;;;5051675;28;20188;-71
2024/02/20 10:40:32;;;;;;;44.53;41.53;;;21.50;87.30;;;;;;5052962;28;20215;-70
2024/02/20 10:43:00;;;;;;;49.23;45.90;;;21.50;87.40;;;;;;5052859;28;20187;-71
2024/02/20 10:45:28;;;;;;;50.33;46.83;;;21.50;87.40;;;;;;5052771;28;20704;-70
2024/02/20 10:47:56;;;;;;;48.00;45.17;;;21.50;87.50;;;;;;5052574;28;20561;-71
2024/02/20 10:50:24;;;;;;;50.20;47.23;;;21.50;87.50;;;;;;5053129;28;20202;-71
2024/02/20 10:52:59;;;;;;;52.33;49.33;;;21.50;87.50;;;;;;5048553;28;20351;-70
2024/02/20 10:55:29;;;;;;;49.57;46.77;;;21.50;87.60;;;;;;5052509;28;20187;-71
2024/02/20 10:58:00;;;;;;;51.27;48.17;;;21.50;87.70;;;;;;5052854;28;20457;-71
2024/02/20 11:00:29;;;;;;;51.10;47.93;;;21.40;87.90;;;;;;5051261;28;20186;-71
2024/02/20 11:02:58;;;;;;;53.37;50.20;;;21.30;87.90;;;;;;5053210;28;20210;-72
2024/02/20 11:05:26;;;;;;;55.67;52.53;;;21.40;88.10;;;;;;5051249;28;20184;-71
2024/02/20 11:08:03;;;;;;;56.20;52.80;;;21.30;88.10;;;;;;5049143;28;20253;-71
2024/02/20 11:10:33;;;;;;;54.33;50.97;;;21.30;88.10;;;;;;5051331;28;20191;-71
2024/02/20 11:13:10;;;;;;;59.17;55.80;;;21.30;88.10;;;;;;5052951;28;20183;-71
2024/02/20 11:15:38;;;;;;;62.70;59.17;;;21.20;88.20;;;;;;5051253;28;20215;-71
2024/02/20 11:18:15;;;;;;;65.23;61.73;;;21.20;88.30;;;;;;5051601;28;20218;-71
2024/02/20 11:20:46;;;;;;;68.77;64.63;;;21.20;88.40;;;;;;5046082;28;20290;-71
2024/02/20 11:23:13;;;;;;;67.33;63.47;;;21.10;88.60;;;;;;5052070;28;20183;-71
2024/02/20 11:25:44;;;;;;;75.33;71.33;;;21.00;88.80;;;;;;5051940;28;20180;-71
2024/02/20 11:28:17;;;;;;;80.27;75.83;;;21.10;88.90;;;;;;5051056;28;20205;-71
2024/02/20 11:30:47;;;;;;;79.37;74.67;;;21.00;88.90;;;;;;5048603;28;20184;-71
2024/02/20 11:33:16;;;;;;;85.77;80.87;;;21.00;89.10;;;;;;5050974;28;20245;-71
2024/02/20 11:35:44;;;;;;;82.53;78.03;;;21.00;89.20;;;;;;5047190;28;20224;-72
2024/02/20 11:38:16;;;;;;;91.63;86.33;;;21.00;89.30;;;;;;5051463;28;20187;-71
2024/02/20 11:40:43;;;;;;;97.80;92.47;;;21.00;89.40;;;;;;5045778;28;20212;-71
2024/02/20 11:43:11;;;;;;;98.40;92.80;;;20.90;89.40;;;;;;5051529;28;20184;-71
2024/02/20 11:45:38;;;;;;;103.53;97.60;;;20.90;89.50;;;;;;5052364;28;20630;-71
2024/02/20 11:48:13;;;;;;;109.23;103.27;;;20.90;89.60;;;;;;5051895;28;20184;-71
2024/02/20 11:50:42;;;;;;;113.50;107.53;;;20.90;89.70;;;;;;5051990;28;20183;-71
2024/02/20 11:53:14;;;;;;;110.37;104.20;;;20.90;89.70;;;;;;5046591;28;20662;-71
2024/02/20 11:55:49;;;;;;;112.43;106.57;;;20.90;89.70;;;;;;5045087;28;20291;-72
2024/02/20 11:58:23;;;;;;;112.33;106.33;;;20.90;89.70;;;;;;5050810;28;20190;-71
2024/02/20 12:00:54;;;;;;;118.90;112.40;;;20.80;89.70;;;;;;5049879;28;20195;-72
2024/02/20 12:03:32;;;;;;;122.60;115.30;;;20.80;89.80;;;;;;5051857;28;20222;-71
2024/02/20 12:06:09;;;;;;;122.70;116.03;;;20.80;89.90;;;;;;5050822;28;20349;-71
2024/02/20 12:08:41;;;;;;;126.00;119.27;;;20.80;90.00;;;;;;5052114;28;20241;-72
2024/02/20 12:11:11;;;;;;;133.57;126.50;;;20.70;90.10;;;;;;5048549;28;20237;-72
2024/02/20 12:13:39;;;;;;;140.43;133.03;;;20.80;90.20;;;;;;5051904;28;20327;-72
2024/02/20 12:16:17;;;;;;;140.63;133.13;;;20.70;90.30;;;;;;5048467;28;20192;-71
2024/02/20 12:18:47;;;;;;;142.07;134.73;;;20.70;90.40;;;;;;5051749;28;20180;-72
2024/02/20 12:21:15;;;;;;;147.33;139.93;;;20.70;90.40;;;;;;5050627;28;20566;-72
2024/02/20 12:23:51;;;;;;;149.80;142.00;;;20.70;90.50;;;;;;5051604;28;20184;-72
2024/02/20 12:26:19;;;;;;;156.27;148.43;;;20.70;90.60;;;;;;5050673;28;20180;-72
2024/02/20 12:28:47;;;;;;;160.60;151.73;;;20.70;90.80;;;;;;5051531;28;20646;-72